createdAt,value
2016-12-04T00:00:15.158Z,921.93
2016-12-04T00:00:42.891Z,921.97
2016-12-04T00:01:11.028Z,921.92
2016-12-04T00:01:39.547Z,921.97
2016-12-04T00:02:07.368Z,921.92
2016-12-04T00:02:35.854Z,921.95
2016-12-04T00:03:03.636Z,921.97
2016-12-04T00:03:31.409Z,921.99
2016-12-04T00:03:59.586Z,921.97
2016-12-04T00:04:42.550Z,922.01
2016-12-04T00:05:10.367Z,921.98
2016-12-04T00:05:38.476Z,922.03
2016-12-04T00:06:06.338Z,922.01
2016-12-04T00:06:34.171Z,921.99
2016-12-04T00:07:02.054Z,922.03
2016-12-04T00:07:30.474Z,922.02
2016-12-04T00:07:58.344Z,921.97
2016-12-04T00:08:26.527Z,921.99
2016-12-04T00:08:54.390Z,921.97
2016-12-04T00:09:22.222Z,921.94
2016-12-04T00:09:50.233Z,922
2016-12-04T00:10:18.096Z,922
2016-12-04T00:10:45.971Z,921.97
2016-12-04T00:11:13.731Z,922.01
2016-12-04T00:11:42.410Z,921.93
2016-12-04T00:12:10.594Z,921.97
2016-12-04T00:12:38.703Z,921.92
2016-12-04T00:13:06.601Z,921.97
2016-12-04T00:13:34.434Z,921.91
2016-12-04T00:14:02.821Z,921.95
2016-12-04T00:14:30.701Z,921.94
2016-12-04T00:14:58.500Z,921.93
2016-12-04T00:15:26.264Z,921.94
2016-12-04T00:15:54.138Z,921.99
2016-12-04T00:16:22.318Z,921.9
2016-12-04T00:16:50.128Z,922.01
2016-12-04T00:17:18.537Z,921.97
2016-12-04T00:17:46.330Z,921.88
2016-12-04T00:18:14.176Z,921.84
2016-12-04T00:18:41.991Z,921.87
2016-12-04T00:19:09.833Z,921.87
2016-12-04T00:19:37.952Z,921.9
2016-12-04T00:20:05.807Z,921.92
2016-12-04T00:20:33.610Z,921.84
2016-12-04T00:21:01.391Z,921.89
2016-12-04T00:21:29.348Z,921.85
2016-12-04T00:21:57.531Z,921.75
2016-12-04T00:22:25.593Z,921.85
2016-12-04T00:22:53.414Z,921.82
2016-12-04T00:23:21.155Z,921.83
2016-12-04T00:23:48.999Z,921.82
2016-12-04T00:24:16.816Z,921.84
2016-12-04T00:24:44.998Z,921.83
2016-12-04T00:25:13.805Z,921.86
2016-12-04T00:25:41.653Z,921.75
2016-12-04T00:26:09.397Z,921.75
2016-12-04T00:26:37.597Z,921.86
2016-12-04T00:27:05.564Z,921.75
2016-12-04T00:27:33.370Z,921.8
2016-12-04T00:28:01.157Z,921.77
2016-12-04T00:28:29.333Z,921.79
2016-12-04T00:28:57.174Z,921.77
2016-12-04T00:29:25.305Z,921.76
2016-12-04T00:29:53.317Z,921.81
2016-12-04T00:30:21.077Z,921.81
2016-12-04T00:30:48.894Z,921.75
2016-12-04T00:31:16.746Z,921.84
2016-12-04T00:31:44.860Z,921.76
2016-12-04T00:32:12.824Z,921.82
2016-12-04T00:32:40.639Z,921.75
2016-12-04T00:33:08.395Z,921.73
2016-12-04T00:33:36.276Z,921.73
2016-12-04T00:34:04.148Z,921.76
2016-12-04T00:34:32.307Z,921.78
2016-12-04T00:35:00.499Z,921.73
2016-12-04T00:35:28.573Z,921.78
2016-12-04T00:35:56.380Z,921.72
2016-12-04T00:36:24.949Z,921.73
2016-12-04T00:36:52.829Z,921.77
2016-12-04T00:37:20.581Z,921.82
2016-12-04T00:37:48.406Z,921.85
2016-12-04T00:38:16.221Z,921.83
2016-12-04T00:38:44.009Z,921.79
2016-12-04T00:39:11.980Z,921.78
2016-12-04T00:39:40.491Z,921.83
2016-12-04T00:40:08.253Z,921.75
2016-12-04T00:40:36.068Z,921.82
2016-12-04T00:41:04.182Z,921.8
2016-12-04T00:41:32.618Z,921.81
2016-12-04T00:42:00.420Z,921.86
2016-12-04T00:42:28.635Z,921.87
2016-12-04T00:42:56.692Z,921.83
2016-12-04T00:43:24.848Z,921.85
2016-12-04T00:43:52.725Z,921.85
2016-12-04T00:44:20.503Z,921.85
2016-12-04T00:44:48.708Z,921.91
2016-12-04T00:45:16.769Z,921.89
2016-12-04T00:45:44.567Z,921.87
2016-12-04T00:46:12.410Z,921.87
2016-12-04T00:46:40.531Z,921.9
2016-12-04T00:47:08.385Z,921.9
2016-12-04T00:47:36.225Z,921.89
2016-12-04T00:48:04.411Z,921.9
2016-12-04T00:48:32.541Z,921.95
2016-12-04T00:49:00.342Z,921.88
2016-12-04T00:49:28.284Z,921.95
2016-12-04T00:49:56.130Z,921.86
2016-12-04T00:50:23.987Z,921.89
2016-12-04T00:50:51.753Z,921.91
2016-12-04T00:51:19.888Z,921.81
2016-12-04T00:51:47.698Z,921.86
2016-12-04T00:52:15.532Z,921.84
2016-12-04T00:52:43.682Z,921.85
2016-12-04T00:53:11.813Z,921.88
2016-12-04T00:53:39.695Z,921.85
2016-12-04T00:54:07.606Z,921.8
2016-12-04T00:54:35.427Z,921.81
2016-12-04T00:55:03.227Z,921.9
2016-12-04T00:55:31.417Z,921.79
2016-12-04T00:55:59.551Z,921.77
2016-12-04T00:56:27.398Z,921.8
2016-12-04T00:56:55.575Z,921.84
2016-12-04T00:57:23.775Z,921.85
2016-12-04T00:57:51.614Z,921.81
2016-12-04T00:58:19.720Z,921.9
2016-12-04T00:58:47.988Z,921.87
2016-12-04T00:59:15.764Z,921.91
2016-12-04T00:59:43.592Z,921.85
2016-12-04T01:00:11.517Z,921.92
2016-12-04T01:00:39.394Z,921.94
2016-12-04T01:01:07.133Z,921.92
2016-12-04T01:01:35.042Z,921.92
2016-12-04T01:02:02.816Z,921.92
2016-12-04T01:02:30.961Z,921.9
2016-12-04T01:02:59.220Z,921.88
2016-12-04T01:03:27.676Z,921.89
2016-12-04T01:03:55.783Z,921.88
2016-12-04T01:04:23.905Z,921.94
2016-12-04T01:04:52.393Z,921.92
2016-12-04T01:05:20.673Z,921.94
2016-12-04T01:05:49.228Z,921.96
2016-12-04T01:06:17.003Z,921.99
2016-12-04T01:06:45.408Z,921.94
2016-12-04T01:07:13.522Z,921.95
2016-12-04T01:07:41.341Z,921.93
2016-12-04T01:08:09.108Z,921.97
2016-12-04T01:08:36.939Z,921.95
2016-12-04T01:09:05.061Z,921.93
2016-12-04T01:09:33.808Z,922
2016-12-04T01:10:01.629Z,922
2016-12-04T01:10:29.440Z,921.95
2016-12-04T01:10:57.803Z,921.95
2016-12-04T01:11:25.600Z,921.98
2016-12-04T01:11:53.433Z,921.96
2016-12-04T01:12:21.548Z,921.94
2016-12-04T01:12:50.519Z,921.96
2016-12-04T01:13:18.258Z,921.96
2016-12-04T01:13:46.379Z,921.95
2016-12-04T01:14:14.408Z,921.87
2016-12-04T01:14:42.209Z,921.96
2016-12-04T01:15:09.956Z,921.92
2016-12-04T01:15:38.533Z,921.98
2016-12-04T01:16:06.690Z,922.02
2016-12-04T01:16:34.531Z,921.99
2016-12-04T01:17:02.687Z,922
2016-12-04T01:17:30.810Z,921.98
2016-12-04T01:17:58.638Z,921.99
2016-12-04T01:18:26.846Z,921.99
2016-12-04T01:18:54.593Z,921.98
2016-12-04T01:19:22.759Z,921.92
2016-12-04T01:19:50.532Z,921.94
2016-12-04T01:20:18.492Z,921.94
2016-12-04T01:20:46.544Z,921.9
2016-12-04T01:21:15.311Z,921.94
2016-12-04T01:21:43.444Z,921.9
2016-12-04T01:22:25.927Z,921.88
2016-12-04T01:22:53.888Z,921.86
2016-12-04T01:23:21.758Z,921.89
2016-12-04T01:23:49.957Z,921.88
2016-12-04T01:24:17.820Z,921.92
2016-12-04T01:24:45.616Z,921.97
2016-12-04T01:25:13.781Z,921.97
2016-12-04T01:25:42.229Z,921.94
2016-12-04T01:26:10.067Z,921.93
2016-12-04T01:26:38.250Z,921.89
2016-12-04T01:27:06.411Z,921.95
2016-12-04T01:27:34.581Z,921.95
2016-12-04T01:28:02.775Z,921.9
2016-12-04T01:28:30.578Z,921.93
2016-12-04T01:28:58.366Z,921.95
2016-12-04T01:29:26.221Z,921.98
2016-12-04T01:29:54.655Z,921.97
2016-12-04T01:30:22.420Z,921.98
2016-12-04T01:30:50.694Z,922
2016-12-04T01:31:18.830Z,921.97
2016-12-04T01:31:46.663Z,922
2016-12-04T01:32:14.512Z,921.99
2016-12-04T01:32:42.670Z,921.99
2016-12-04T01:33:10.419Z,922
2016-12-04T01:33:38.580Z,921.97
2016-12-04T01:34:06.645Z,921.99
2016-12-04T01:34:34.427Z,922.04
2016-12-04T01:35:02.271Z,922.03
2016-12-04T01:35:30.037Z,922.02
2016-12-04T01:35:58.672Z,921.99
2016-12-04T01:36:26.875Z,921.96
2016-12-04T01:36:54.704Z,921.96
2016-12-04T01:37:22.495Z,921.98
2016-12-04T01:37:50.327Z,921.99
2016-12-04T01:38:18.512Z,921.97
2016-12-04T01:38:46.343Z,922.01
2016-12-04T01:39:14.264Z,921.97
2016-12-04T01:39:42.091Z,922
2016-12-04T01:40:10.211Z,922
2016-12-04T01:40:38.061Z,921.95
2016-12-04T01:41:05.947Z,921.96
2016-12-04T01:41:34.155Z,921.97
2016-12-04T01:42:02.037Z,922.01
2016-12-04T01:42:30.555Z,921.94
2016-12-04T01:42:58.376Z,921.95
2016-12-04T01:43:26.166Z,921.92
2016-12-04T01:43:54.270Z,921.99
2016-12-04T01:44:22.562Z,921.99
2016-12-04T01:44:50.654Z,921.97
2016-12-04T01:45:18.492Z,921.95
2016-12-04T01:45:46.616Z,921.99
2016-12-04T01:46:14.765Z,922.01
2016-12-04T01:46:42.895Z,922.01
2016-12-04T01:47:11.310Z,922.05
2016-12-04T01:47:39.138Z,922.04
2016-12-04T01:48:06.927Z,922.07
2016-12-04T01:48:35.096Z,922.05
2016-12-04T01:49:02.816Z,922.09
2016-12-04T01:49:30.668Z,922.15
2016-12-04T01:49:59.180Z,922.05
2016-12-04T01:50:27.675Z,922.07
2016-12-04T01:50:56.219Z,922.09
2016-12-04T01:51:24.371Z,922.08
2016-12-04T01:51:52.989Z,922.11
2016-12-04T01:52:21.113Z,922.1
2016-12-04T01:52:49.001Z,922.1
2016-12-04T01:53:17.181Z,922.05
2016-12-04T01:53:45.069Z,922.11
2016-12-04T01:54:12.938Z,922.1
2016-12-04T01:54:40.745Z,922.06
2016-12-04T01:55:09.193Z,922.08
2016-12-04T01:55:37.259Z,922.09
2016-12-04T01:56:05.275Z,922.07
2016-12-04T01:56:33.088Z,922.09
2016-12-04T01:57:00.905Z,921.98
2016-12-04T01:57:28.973Z,922
2016-12-04T01:57:56.786Z,922.04
2016-12-04T01:58:25.082Z,922.05
2016-12-04T01:58:52.939Z,922.05
2016-12-04T01:59:21.028Z,922.06
2016-12-04T01:59:49.201Z,922.01
2016-12-04T02:00:17.022Z,922.05
2016-12-04T02:00:44.772Z,922.06
2016-12-04T02:01:13.231Z,922.01
2016-12-04T02:01:41.262Z,922.04
2016-12-04T02:02:09.116Z,922.01
2016-12-04T02:02:37.270Z,922.03
2016-12-04T02:03:05.011Z,922.01
2016-12-04T02:03:32.890Z,922.06
2016-12-04T02:04:01.030Z,921.97
2016-12-04T02:04:28.862Z,922.02
2016-12-04T02:04:56.674Z,922.02
2016-12-04T02:05:24.508Z,922
2016-12-04T02:05:52.723Z,921.95
2016-12-04T02:06:20.571Z,921.97
2016-12-04T02:06:48.430Z,921.94
2016-12-04T02:07:16.249Z,922.01
2016-12-04T02:07:44.012Z,922.02
2016-12-04T02:08:11.796Z,921.98
2016-12-04T02:08:39.625Z,922.04
2016-12-04T02:09:07.454Z,922.02
2016-12-04T02:09:35.554Z,921.99
2016-12-04T02:10:03.353Z,922.03
2016-12-04T02:10:31.159Z,921.98
2016-12-04T02:10:59.670Z,921.96
2016-12-04T02:11:27.718Z,921.94
2016-12-04T02:11:55.553Z,921.93
2016-12-04T02:12:23.373Z,921.91
2016-12-04T02:12:51.583Z,921.92
2016-12-04T02:13:19.433Z,921.85
2016-12-04T02:13:47.568Z,921.9
2016-12-04T02:14:15.444Z,921.88
2016-12-04T02:14:43.347Z,921.85
2016-12-04T02:15:11.179Z,921.86
2016-12-04T02:15:38.981Z,921.82
2016-12-04T02:16:07.035Z,921.8
2016-12-04T02:16:34.891Z,921.78
2016-12-04T02:17:02.686Z,921.76
2016-12-04T02:17:31.457Z,921.79
2016-12-04T02:17:59.247Z,921.77
2016-12-04T02:18:27.417Z,921.78
2016-12-04T02:18:55.490Z,921.76
2016-12-04T02:19:23.365Z,921.71
2016-12-04T02:19:51.437Z,921.74
2016-12-04T02:20:19.854Z,921.76
2016-12-04T02:20:47.688Z,921.77
2016-12-04T02:21:15.965Z,921.72
2016-12-04T02:21:43.891Z,921.75
2016-12-04T02:22:12.120Z,921.76
2016-12-04T02:22:39.970Z,921.74
2016-12-04T02:23:08.106Z,921.71
2016-12-04T02:23:50.739Z,921.74
2016-12-04T02:24:18.609Z,921.7
2016-12-04T02:24:46.856Z,921.73
2016-12-04T02:25:14.720Z,921.74
2016-12-04T02:25:43.133Z,921.7
2016-12-04T02:26:10.935Z,921.75
2016-12-04T02:26:38.694Z,921.72
2016-12-04T02:27:06.822Z,921.74
2016-12-04T02:27:34.624Z,921.72
2016-12-04T02:28:02.445Z,921.71
2016-12-04T02:28:30.245Z,921.72
2016-12-04T02:28:58.113Z,921.7
2016-12-04T02:29:25.892Z,921.71
2016-12-04T02:29:53.719Z,921.69
2016-12-04T02:30:21.630Z,921.68
2016-12-04T02:30:49.731Z,921.63
2016-12-04T02:31:17.993Z,921.63
2016-12-04T02:31:45.811Z,921.62
2016-12-04T02:32:13.980Z,921.64
2016-12-04T02:32:42.453Z,921.64
2016-12-04T02:33:10.243Z,921.65
2016-12-04T02:33:38.056Z,921.61
2016-12-04T02:34:05.867Z,921.62
2016-12-04T02:34:33.771Z,921.64
2016-12-04T02:35:02.262Z,921.63
2016-12-04T02:35:30.623Z,921.64
2016-12-04T02:35:58.415Z,921.6
2016-12-04T02:36:26.405Z,921.6
2016-12-04T02:36:54.535Z,921.59
2016-12-04T02:37:22.409Z,921.59
2016-12-04T02:37:50.291Z,921.61
2016-12-04T02:38:18.715Z,921.59
2016-12-04T02:38:46.568Z,921.57
2016-12-04T02:39:14.402Z,921.52
2016-12-04T02:39:42.556Z,921.56
2016-12-04T02:40:11.001Z,921.6
2016-12-04T02:40:38.857Z,921.57
2016-12-04T02:41:06.757Z,921.53
2016-12-04T02:41:34.562Z,921.48
2016-12-04T02:42:02.626Z,921.5
2016-12-04T02:42:30.960Z,921.53
2016-12-04T02:42:59.081Z,921.5
2016-12-04T02:43:26.806Z,921.49
2016-12-04T02:43:54.638Z,921.49
2016-12-04T02:44:22.800Z,921.49
2016-12-04T02:44:50.897Z,921.43
2016-12-04T02:45:19.057Z,921.45
2016-12-04T02:45:47.153Z,921.5
2016-12-04T02:46:15.011Z,921.43
2016-12-04T02:46:43.455Z,921.45
2016-12-04T02:47:11.296Z,921.45
2016-12-04T02:47:38.991Z,921.45
2016-12-04T02:48:07.101Z,921.41
2016-12-04T02:48:34.899Z,921.41
2016-12-04T02:49:02.760Z,921.42
2016-12-04T02:49:31.217Z,921.45
2016-12-04T02:49:58.941Z,921.41
2016-12-04T02:50:26.752Z,921.39
2016-12-04T02:50:55.131Z,921.39
2016-12-04T02:51:23.075Z,921.39
2016-12-04T02:51:50.867Z,921.38
2016-12-04T02:52:19.250Z,921.34
2016-12-04T02:52:47.088Z,921.31
2016-12-04T02:53:14.924Z,921.31
2016-12-04T02:53:42.799Z,921.36
2016-12-04T02:54:10.694Z,921.36
2016-12-04T02:54:38.469Z,921.36
2016-12-04T02:55:06.677Z,921.33
2016-12-04T02:55:34.571Z,921.3
2016-12-04T02:56:02.758Z,921.31
2016-12-04T02:56:30.769Z,921.34
2016-12-04T02:56:58.539Z,921.31
2016-12-04T02:57:26.404Z,921.29
2016-12-04T02:57:54.548Z,921.28
2016-12-04T02:58:22.320Z,921.28
2016-12-04T02:58:50.083Z,921.28
2016-12-04T02:59:17.886Z,921.27
2016-12-04T02:59:45.828Z,921.25
2016-12-04T03:00:13.626Z,921.26
2016-12-04T03:00:41.517Z,921.29
2016-12-04T03:01:09.684Z,921.28
2016-12-04T03:01:37.862Z,921.24
2016-12-04T03:02:06.328Z,921.21
2016-12-04T03:02:34.793Z,921.24
2016-12-04T03:03:02.655Z,921.23
2016-12-04T03:03:30.796Z,921.28
2016-12-04T03:03:58.559Z,921.26
2016-12-04T03:04:26.651Z,921.24
2016-12-04T03:04:54.863Z,921.17
2016-12-04T03:05:22.739Z,921.19
2016-12-04T03:05:50.566Z,921.2
2016-12-04T03:06:18.459Z,921.2
2016-12-04T03:06:46.347Z,921.09
2016-12-04T03:07:14.174Z,921.1
2016-12-04T03:07:42.036Z,921.14
2016-12-04T03:08:10.218Z,921.13
2016-12-04T03:08:38.028Z,921.13
2016-12-04T03:09:06.213Z,921.08
2016-12-04T03:09:34.379Z,921.06
2016-12-04T03:10:02.515Z,921.06
2016-12-04T03:10:30.764Z,921.02
2016-12-04T03:10:58.916Z,921
2016-12-04T03:11:26.982Z,920.97
2016-12-04T03:11:55.505Z,920.98
2016-12-04T03:12:23.895Z,920.91
2016-12-04T03:12:51.683Z,920.94
2016-12-04T03:13:19.474Z,920.87
2016-12-04T03:13:47.189Z,920.84
2016-12-04T03:14:15.374Z,920.83
2016-12-04T03:14:43.202Z,920.83
2016-12-04T03:15:11.052Z,920.8
2016-12-04T03:15:38.913Z,920.77
2016-12-04T03:16:06.690Z,920.83
2016-12-04T03:16:35.159Z,920.86
2016-12-04T03:17:02.996Z,920.71
2016-12-04T03:17:31.151Z,920.79
2016-12-04T03:17:59.304Z,920.72
2016-12-04T03:18:27.140Z,920.67
2016-12-04T03:18:54.922Z,920.71
2016-12-04T03:19:23.171Z,920.72
2016-12-04T03:19:51.003Z,920.68
2016-12-04T03:20:19.140Z,920.75
2016-12-04T03:20:47.288Z,920.67
2016-12-04T03:21:15.151Z,920.69
2016-12-04T03:21:43.588Z,920.77
2016-12-04T03:22:11.397Z,920.71
2016-12-04T03:22:39.142Z,920.73
2016-12-04T03:23:07.278Z,920.75
2016-12-04T03:23:35.461Z,920.72
2016-12-04T03:24:03.351Z,920.73
2016-12-04T03:24:31.174Z,920.69
2016-12-04T03:24:59.102Z,920.73
2016-12-04T03:25:27.277Z,920.72
2016-12-04T03:25:55.092Z,920.78
2016-12-04T03:26:22.915Z,920.69
2016-12-04T03:26:50.837Z,920.78
2016-12-04T03:27:18.954Z,920.77
2016-12-04T03:27:46.733Z,920.78
2016-12-04T03:28:14.624Z,920.77
2016-12-04T03:28:42.478Z,920.75
2016-12-04T03:29:10.327Z,920.73
2016-12-04T03:29:38.100Z,920.72
2016-12-04T03:30:05.908Z,920.7
2016-12-04T03:30:34.234Z,920.73
2016-12-04T03:31:02.018Z,920.67
2016-12-04T03:31:29.779Z,920.67
2016-12-04T03:31:57.814Z,920.6
2016-12-04T03:32:25.994Z,920.67
2016-12-04T03:32:54.177Z,920.62
2016-12-04T03:33:21.996Z,920.56
2016-12-04T03:33:49.805Z,920.59
2016-12-04T03:34:17.595Z,920.57
2016-12-04T03:34:45.813Z,920.62
2016-12-04T03:35:13.602Z,920.49
2016-12-04T03:35:41.407Z,920.47
2016-12-04T03:36:09.234Z,920.55
2016-12-04T03:36:37.359Z,920.5
2016-12-04T03:37:05.728Z,920.51
2016-12-04T03:37:33.851Z,920.52
2016-12-04T03:38:02.016Z,920.52
2016-12-04T03:38:29.879Z,920.48
2016-12-04T03:38:57.755Z,920.5
2016-12-04T03:39:25.516Z,920.48
2016-12-04T03:39:53.667Z,920.46
2016-12-04T03:40:21.584Z,920.49
2016-12-04T03:40:49.789Z,920.42
2016-12-04T03:41:17.959Z,920.48
2016-12-04T03:41:46.417Z,920.46
2016-12-04T03:42:14.267Z,920.47
2016-12-04T03:42:42.781Z,920.48
2016-12-04T03:43:10.637Z,920.48
2016-12-04T03:43:38.421Z,920.43
2016-12-04T03:44:06.514Z,920.47
2016-12-04T03:44:34.366Z,920.4
2016-12-04T03:45:02.192Z,920.37
2016-12-04T03:46:38.419Z,920.43
2016-12-04T03:47:06.470Z,920.36
2016-12-04T03:47:34.267Z,920.35
2016-12-04T03:48:02.485Z,920.38
2016-12-04T03:48:30.363Z,920.34
2016-12-04T03:48:58.266Z,920.37
2016-12-04T03:49:26.356Z,920.41
2016-12-04T03:49:54.498Z,920.37
2016-12-04T03:50:22.385Z,920.32
2016-12-04T03:50:50.150Z,920.35
2016-12-04T03:51:18.369Z,920.32
2016-12-04T03:51:46.372Z,920.25
2016-12-04T03:52:14.194Z,920.25
2016-12-04T03:52:42.024Z,920.23
2016-12-04T03:53:09.848Z,920.16
2016-12-04T03:53:37.643Z,920.18
2016-12-04T03:54:05.406Z,920.24
2016-12-04T03:54:33.228Z,920.2
2016-12-04T03:55:01.114Z,920.16
2016-12-04T03:55:29.255Z,920.2
2016-12-04T03:55:57.397Z,920.14
2016-12-04T03:56:25.187Z,920.14
2016-12-04T03:56:53.321Z,920.11
2016-12-04T03:57:21.246Z,920.08
2016-12-04T03:57:49.104Z,920.05
2016-12-04T03:58:17.638Z,920.09
2016-12-04T03:58:45.390Z,920
2016-12-04T03:59:13.515Z,920.1
2016-12-04T03:59:41.364Z,920.05
2016-12-04T04:00:09.151Z,920
2016-12-04T04:00:37.250Z,919.97
2016-12-04T04:01:05.110Z,920.02
2016-12-04T04:01:33.305Z,920.03
2016-12-04T04:02:01.392Z,919.98
2016-12-04T04:02:29.213Z,919.97
2016-12-04T04:02:57.244Z,919.92
2016-12-04T04:03:25.464Z,919.92
2016-12-04T04:03:53.658Z,919.9
2016-12-04T04:04:22.087Z,919.91
2016-12-04T04:04:49.880Z,919.94
2016-12-04T04:05:17.943Z,919.97
2016-12-04T04:05:46.134Z,919.88
2016-12-04T04:06:13.900Z,919.87
2016-12-04T04:06:41.670Z,919.91
2016-12-04T04:07:09.853Z,919.93
2016-12-04T04:07:37.671Z,919.9
2016-12-04T04:08:05.788Z,919.86
2016-12-04T04:08:33.621Z,919.84
2016-12-04T04:09:01.426Z,919.83
2016-12-04T04:09:29.261Z,919.82
2016-12-04T04:09:57.753Z,919.79
2016-12-04T04:10:25.576Z,919.8
2016-12-04T04:10:53.764Z,919.78
2016-12-04T04:11:21.628Z,919.72
2016-12-04T04:11:49.448Z,919.76
2016-12-04T04:12:17.602Z,919.71
2016-12-04T04:12:46.096Z,919.71
2016-12-04T04:13:14.494Z,919.7
2016-12-04T04:13:42.295Z,919.71
2016-12-04T04:14:10.121Z,919.67
2016-12-04T04:14:38.023Z,919.7
2016-12-04T04:15:05.926Z,919.77
2016-12-04T04:15:34.036Z,919.67
2016-12-04T04:16:02.194Z,919.68
2016-12-04T04:16:30.041Z,919.64
2016-12-04T04:16:58.188Z,919.65
2016-12-04T04:17:26.062Z,919.76
2016-12-04T04:17:53.938Z,919.6
2016-12-04T04:18:22.054Z,919.65
2016-12-04T04:18:50.131Z,919.6
2016-12-04T04:19:17.969Z,919.68
2016-12-04T04:19:47.021Z,919.66
2016-12-04T04:20:14.878Z,919.69
2016-12-04T04:20:42.718Z,919.65
2016-12-04T04:21:10.840Z,919.69
2016-12-04T04:21:38.988Z,919.63
2016-12-04T04:22:07.154Z,919.62
2016-12-04T04:22:35.214Z,919.66
2016-12-04T04:23:03.080Z,919.64
2016-12-04T04:23:31.235Z,919.63
2016-12-04T04:23:59.083Z,919.67
2016-12-04T04:24:27.192Z,919.64
2016-12-04T04:24:55.052Z,919.6
2016-12-04T04:25:22.918Z,919.64
2016-12-04T04:25:51.395Z,919.64
2016-12-04T04:26:19.259Z,919.64
2016-12-04T04:26:47.165Z,919.52
2016-12-04T04:27:15.044Z,919.56
2016-12-04T04:27:42.945Z,919.6
2016-12-04T04:28:10.853Z,919.53
2016-12-04T04:28:38.692Z,919.61
2016-12-04T04:29:06.433Z,919.59
2016-12-04T04:29:34.268Z,919.54
2016-12-04T04:30:01.998Z,919.55
2016-12-04T04:30:29.973Z,919.52
2016-12-04T04:30:58.434Z,919.52
2016-12-04T04:31:27.304Z,919.51
2016-12-04T04:31:55.187Z,919.55
2016-12-04T04:32:23.281Z,919.6
2016-12-04T04:32:51.423Z,919.45
2016-12-04T04:33:19.259Z,919.47
2016-12-04T04:33:47.358Z,919.52
2016-12-04T04:34:15.893Z,919.47
2016-12-04T04:34:43.987Z,919.42
2016-12-04T04:35:12.082Z,919.45
2016-12-04T04:35:40.237Z,919.55
2016-12-04T04:36:08.027Z,919.53
2016-12-04T04:36:36.392Z,919.45
2016-12-04T04:37:04.966Z,919.48
2016-12-04T04:37:33.425Z,919.45
2016-12-04T04:38:01.250Z,919.5
2016-12-04T04:38:29.036Z,919.44
2016-12-04T04:38:57.097Z,919.42
2016-12-04T04:39:24.847Z,919.49
2016-12-04T04:39:52.908Z,919.32
2016-12-04T04:40:20.697Z,919.39
2016-12-04T04:40:48.540Z,919.46
2016-12-04T04:41:16.340Z,919.37
2016-12-04T04:41:44.136Z,919.4
2016-12-04T04:42:11.959Z,919.37
2016-12-04T04:42:40.121Z,919.37
2016-12-04T04:43:07.924Z,919.29
2016-12-04T04:43:36.068Z,919.3
2016-12-04T04:44:03.888Z,919.38
2016-12-04T04:44:31.768Z,919.27
2016-12-04T04:44:59.855Z,919.25
2016-12-04T04:45:27.668Z,919.3
2016-12-04T04:45:55.511Z,919.2
2016-12-04T04:46:23.306Z,919.22
2016-12-04T04:46:51.807Z,919.19
2016-12-04T04:47:20.085Z,919.23
2016-12-04T04:47:48.457Z,919.18
2016-12-04T04:48:16.251Z,919.15
2016-12-04T04:48:44.427Z,919.13
2016-12-04T04:49:12.521Z,919.15
2016-12-04T04:49:40.354Z,919.12
2016-12-04T04:50:08.751Z,919.12
2016-12-04T04:50:36.849Z,919.12
2016-12-04T04:51:04.748Z,919.05
2016-12-04T04:51:32.615Z,919.08
2016-12-04T04:52:00.487Z,918.99
2016-12-04T04:52:28.902Z,919.06
2016-12-04T04:52:57.034Z,919.08
2016-12-04T04:53:24.843Z,919.02
2016-12-04T04:53:52.883Z,919.07
2016-12-04T04:54:20.997Z,918.99
2016-12-04T04:54:48.869Z,918.98
2016-12-04T04:55:16.935Z,919
2016-12-04T04:55:44.785Z,919.04
2016-12-04T04:56:12.944Z,919.07
2016-12-04T04:56:41.057Z,919.02
2016-12-04T04:57:08.859Z,919.07
2016-12-04T04:57:37.012Z,919.01
2016-12-04T04:58:04.786Z,919.05
2016-12-04T04:58:32.626Z,919.08
2016-12-04T04:59:01.034Z,919.04
2016-12-04T04:59:29.213Z,919.06
2016-12-04T04:59:57.979Z,919.07
2016-12-04T05:00:25.755Z,919.05
2016-12-04T05:00:53.605Z,919.06
2016-12-04T05:01:21.766Z,919.08
2016-12-04T05:01:49.688Z,919.01
2016-12-04T05:02:17.524Z,919.03
2016-12-04T05:02:45.671Z,919.02
2016-12-04T05:03:13.815Z,919.03
2016-12-04T05:03:41.605Z,919.03
2016-12-04T05:04:09.809Z,918.99
2016-12-04T05:04:37.909Z,918.92
2016-12-04T05:05:06.009Z,918.99
2016-12-04T05:05:34.193Z,918.99
2016-12-04T05:06:02.887Z,918.97
2016-12-04T05:06:31.070Z,918.95
2016-12-04T05:06:59.238Z,918.92
2016-12-04T05:07:27.542Z,918.97
2016-12-04T05:07:55.757Z,918.98
2016-12-04T05:08:23.547Z,918.97
2016-12-04T05:08:51.252Z,918.94
2016-12-04T05:09:19.093Z,918.87
2016-12-04T05:09:46.901Z,918.88
2016-12-04T05:10:14.662Z,918.91
2016-12-04T05:10:42.436Z,918.99
2016-12-04T05:11:10.240Z,918.84
2016-12-04T05:11:38.092Z,918.91
2016-12-04T05:12:06.547Z,918.9
2016-12-04T05:12:35.155Z,918.92
2016-12-04T05:13:02.932Z,918.86
2016-12-04T05:13:30.710Z,918.85
2016-12-04T05:13:58.522Z,918.79
2016-12-04T05:14:26.292Z,918.79
2016-12-04T05:14:54.749Z,918.79
2016-12-04T05:15:22.855Z,918.8
2016-12-04T05:15:50.627Z,918.75
2016-12-04T05:16:18.383Z,918.78
2016-12-04T05:16:46.476Z,918.83
2016-12-04T05:17:14.435Z,918.78
2016-12-04T05:17:42.301Z,918.79
2016-12-04T05:18:10.711Z,918.73
2016-12-04T05:18:38.626Z,918.77
2016-12-04T05:19:06.543Z,918.78
2016-12-04T05:19:34.639Z,918.68
2016-12-04T05:20:02.392Z,918.63
2016-12-04T05:20:30.578Z,918.64
2016-12-04T05:20:58.745Z,918.6
2016-12-04T05:21:26.553Z,918.65
2016-12-04T05:21:54.435Z,918.6
2016-12-04T05:22:22.223Z,918.67
2016-12-04T05:22:50.355Z,918.65
2016-12-04T05:23:18.143Z,918.67
2016-12-04T05:23:46.048Z,918.64
2016-12-04T05:24:13.915Z,918.52
2016-12-04T05:24:42.108Z,918.58
2016-12-04T05:26:24.545Z,918.54
2016-12-04T05:26:52.415Z,918.57
2016-12-04T05:27:20.508Z,918.54
2016-12-04T05:27:49.114Z,918.56
2016-12-04T05:28:16.961Z,918.53
2016-12-04T05:28:44.750Z,918.44
2016-12-04T05:29:12.887Z,918.51
2016-12-04T05:29:40.769Z,918.49
2016-12-04T05:30:08.575Z,918.46
2016-12-04T05:30:36.666Z,918.51
2016-12-04T05:31:04.648Z,918.5
2016-12-04T05:31:32.785Z,918.41
2016-12-04T05:32:00.915Z,918.45
2016-12-04T05:32:28.749Z,918.45
2016-12-04T05:32:56.729Z,918.39
2016-12-04T05:33:25.129Z,918.42
2016-12-04T05:33:52.883Z,918.42
2016-12-04T05:34:20.748Z,918.38
2016-12-04T05:34:48.754Z,918.38
2016-12-04T05:35:16.950Z,918.43
2016-12-04T05:35:44.772Z,918.31
2016-12-04T05:36:12.876Z,918.31
2016-12-04T05:36:41.027Z,918.34
2016-12-04T05:37:09.534Z,918.25
2016-12-04T05:37:37.376Z,918.35
2016-12-04T05:38:05.576Z,918.34
2016-12-04T05:38:33.364Z,918.35
2016-12-04T05:39:01.152Z,918.34
2016-12-04T05:39:29.015Z,918.36
2016-12-04T05:39:57.133Z,918.37
2016-12-04T05:40:24.897Z,918.34
2016-12-04T05:40:52.788Z,918.39
2016-12-04T05:41:20.624Z,918.28
2016-12-04T05:41:48.409Z,918.37
2016-12-04T05:42:17.095Z,918.35
2016-12-04T05:42:44.859Z,918.31
2016-12-04T05:43:12.689Z,918.32
2016-12-04T05:43:55.082Z,918.34
2016-12-04T05:44:22.905Z,918.32
2016-12-04T05:44:51.067Z,918.32
2016-12-04T05:45:18.856Z,918.27
2016-12-04T05:45:46.641Z,918.34
2016-12-04T05:46:14.424Z,918.32
2016-12-04T05:46:42.483Z,918.33
2016-12-04T05:47:10.301Z,918.33
2016-12-04T05:47:38.118Z,918.29
2016-12-04T05:48:06.327Z,918.34
2016-12-04T05:48:34.138Z,918.33
2016-12-04T05:49:01.955Z,918.35
2016-12-04T05:49:29.797Z,918.29
2016-12-04T05:49:57.745Z,918.3
2016-12-04T05:50:25.594Z,918.33
2016-12-04T05:50:53.385Z,918.33
2016-12-04T05:51:21.240Z,918.13
2016-12-04T05:51:49.015Z,918.26
2016-12-04T05:52:17.235Z,918.32
2016-12-04T05:52:45.109Z,918.28
2016-12-04T05:53:13.040Z,918.27
2016-12-04T05:53:40.885Z,918.26
2016-12-04T05:54:08.748Z,918.25